createdAt,value
2023-05-15T14:38:39.017Z,36.29
2023-05-15T14:39:38.971Z,36.38
2023-05-15T14:40:38.953Z,36.40
2023-05-15T14:41:38.963Z,36.19
2023-05-15T14:42:38.948Z,36.07
2023-05-15T14:43:38.962Z,35.89
2023-05-15T14:44:38.968Z,35.91
2023-05-15T14:45:38.934Z,35.73
2023-05-15T14:46:39.021Z,35.62
2023-05-15T14:47:38.970Z,35.46
2023-05-15T14:48:38.928Z,35.38
2023-05-15T14:49:38.909Z,35.27
2023-05-15T14:50:38.896Z,35.17
2023-05-15T14:51:38.916Z,35.12
2023-05-15T14:52:38.898Z,35.03
2023-05-15T14:53:38.875Z,34.88
2023-05-15T14:54:38.972Z,34.97
2023-05-15T14:55:38.859Z,34.87
2023-05-15T14:56:38.850Z,34.93
2023-05-15T14:57:38.858Z,34.87
2023-05-15T14:58:38.870Z,34.74
2023-05-15T14:59:38.840Z,34.67
2023-05-15T15:00:38.849Z,34.67
2023-05-15T15:01:38.848Z,34.63
2023-05-15T15:02:38.889Z,34.48
2023-05-15T15:03:38.936Z,34.45
2023-05-15T15:04:38.836Z,34.41
2023-05-15T15:05:38.789Z,34.36
2023-05-15T15:06:38.826Z,34.25
2023-05-15T15:07:38.802Z,34.30
2023-05-15T15:08:38.768Z,34.23
2023-05-15T15:09:38.780Z,34.18
2023-05-15T15:10:38.773Z,34.10
2023-05-15T15:11:38.761Z,34.04
2023-05-15T15:12:38.770Z,34.08
2023-05-15T15:13:38.743Z,33.98
2023-05-15T15:14:38.748Z,33.92
2023-05-15T15:15:38.741Z,33.94
2023-05-15T15:16:38.737Z,33.91
2023-05-15T15:17:38.786Z,33.84
2023-05-15T15:18:38.745Z,33.76
2023-05-15T15:19:38.719Z,33.76
2023-05-15T15:20:38.704Z,33.73
2023-05-15T15:21:38.736Z,33.75
2023-05-15T15:22:38.711Z,33.87
2023-05-15T15:23:38.666Z,33.91
2023-05-15T15:24:38.698Z,33.96
2023-05-15T15:25:38.705Z,33.99
2023-05-15T15:26:38.713Z,33.96
2023-05-15T15:27:38.685Z,33.97
2023-05-15T15:28:38.711Z,34.09
2023-05-15T15:29:38.737Z,34.11
2023-05-15T15:30:38.766Z,34.16
2023-05-15T15:31:38.788Z,34.17
2023-05-15T15:32:38.781Z,34.24
2023-05-15T15:33:38.907Z,34.29
2023-05-15T15:34:38.888Z,34.36
2023-05-15T15:35:38.909Z,34.29
2023-05-15T15:36:38.947Z,34.35
2023-05-15T15:37:38.984Z,34.35
2023-05-15T15:38:39.003Z,34.40
2023-05-15T15:39:39.060Z,34.40
2023-05-15T15:40:39.135Z,34.40
2023-05-15T15:41:39.165Z,34.40
2023-05-15T15:42:39.198Z,34.37
2023-05-15T15:43:39.248Z,34.36
2023-05-15T15:44:39.291Z,34.40
2023-05-15T15:45:39.356Z,34.40
2023-05-15T15:46:39.394Z,34.47
2023-05-15T15:47:39.515Z,34.43
2023-05-15T15:48:39.491Z,34.45
2023-05-15T15:49:39.549Z,34.45
2023-05-15T15:50:39.607Z,34.44
2023-05-15T15:51:39.656Z,34.43
2023-05-15T15:52:39.729Z,34.42
2023-05-15T15:53:39.782Z,34.44
2023-05-15T15:54:39.869Z,34.39
2023-05-15T15:55:39.895Z,34.38
2023-05-15T15:56:39.966Z,34.43
2023-05-15T15:57:39.994Z,34.44
2023-05-15T15:58:40.100Z,34.39
2023-05-15T15:59:40.174Z,34.40
2023-05-15T16:00:40.191Z,34.37
2023-05-15T16:01:40.296Z,34.38
2023-05-15T16:02:40.364Z,34.41
2023-05-15T16:03:40.432Z,34.46
2023-05-15T16:04:40.420Z,34.39
2023-05-15T16:05:40.492Z,34.40
2023-05-15T16:06:40.552Z,34.38
2023-05-15T16:07:40.579Z,34.38
2023-05-15T16:08:40.674Z,34.41
2023-05-15T16:09:40.662Z,34.42
2023-05-15T16:10:40.682Z,34.33
2023-05-15T16:11:40.711Z,34.34
2023-05-15T16:12:40.837Z,34.38
2023-05-15T16:13:41.276Z,34.32
2023-05-15T16:14:40.793Z,34.31
2023-05-15T16:15:40.815Z,34.32
2023-05-15T16:16:40.863Z,34.31
2023-05-15T16:17:40.891Z,34.30
2023-05-15T16:18:40.862Z,34.32
2023-05-15T16:19:40.864Z,34.30
2023-05-15T16:20:40.877Z,34.30
2023-05-15T16:21:40.905Z,34.33
2023-05-15T16:22:40.916Z,34.32
2023-05-15T16:23:40.877Z,34.35
2023-05-15T16:24:40.896Z,34.33
2023-05-15T16:25:40.882Z,34.31
2023-05-15T16:26:40.905Z,34.33
2023-05-15T16:27:40.892Z,34.31
2023-05-15T16:28:40.886Z,34.32
2023-05-15T16:29:40.882Z,34.30
2023-05-15T16:30:49.056Z,34.29
2023-05-15T16:31:41.923Z,34.29
2023-05-15T16:32:40.930Z,34.29
2023-05-15T16:33:40.938Z,34.32
2023-05-15T16:34:40.873Z,34.35
2023-05-15T16:35:40.853Z,34.33
2023-05-15T16:36:40.854Z,34.38
2023-05-15T16:37:40.861Z,34.35
2023-05-15T16:38:40.858Z,34.39
2023-05-15T16:39:40.833Z,34.37
2023-05-15T16:40:40.862Z,34.36
2023-05-15T16:41:40.808Z,34.43
2023-05-15T16:42:40.846Z,34.34
2023-05-15T16:43:40.849Z,34.33
2023-05-15T16:44:40.802Z,34.36
2023-05-15T16:45:40.842Z,34.34
2023-05-15T16:46:40.835Z,34.38
2023-05-15T16:47:40.822Z,34.37
2023-05-15T16:48:40.787Z,34.43
2023-05-15T16:49:42.664Z,34.41
2023-05-15T16:50:40.801Z,34.42
2023-05-15T16:51:40.751Z,34.38
2023-05-15T16:52:40.790Z,34.42
2023-05-15T16:53:40.795Z,34.43
2023-05-15T16:54:40.760Z,34.41
2023-05-15T16:55:40.754Z,34.45
2023-05-15T16:56:40.729Z,34.42
2023-05-15T16:57:40.747Z,34.39
2023-05-15T16:58:40.723Z,34.43
2023-05-15T16:59:40.699Z,34.36
2023-05-15T17:00:40.727Z,34.44
2023-05-15T17:01:40.741Z,34.40
2023-05-15T17:02:40.813Z,34.42
2023-05-15T17:03:40.781Z,34.43
2023-05-15T17:04:40.696Z,34.36
2023-05-15T17:05:40.694Z,34.42
2023-05-15T17:06:40.674Z,34.40
2023-05-15T17:07:40.679Z,34.38
2023-05-15T17:08:40.655Z,34.38
2023-05-15T17:09:40.667Z,34.38
2023-05-15T17:10:40.668Z,34.32
2023-05-15T17:11:40.627Z,34.33
2023-05-15T17:12:40.698Z,34.33
2023-05-15T17:13:40.637Z,34.31
2023-05-15T17:14:40.622Z,34.33
2023-05-15T17:15:40.613Z,34.25
2023-05-15T17:16:40.670Z,34.19
2023-05-15T17:17:40.635Z,34.11
2023-05-15T17:18:40.591Z,34.18
2023-05-15T17:19:40.591Z,34.16
2023-05-15T17:20:40.574Z,34.04
2023-05-15T17:21:40.572Z,33.92
2023-05-15T17:22:40.558Z,33.89
2023-05-15T17:23:40.568Z,33.90
2023-05-15T17:24:50.738Z,33.92
2023-05-15T17:25:41.548Z,33.95
2023-05-15T17:26:40.531Z,33.92
2023-05-15T17:27:40.557Z,33.88
2023-05-15T17:28:40.562Z,33.87
2023-05-15T17:29:40.579Z,33.87
2023-05-15T17:30:40.527Z,33.83
2023-05-15T17:31:40.555Z,33.72
2023-05-15T17:32:40.573Z,33.70
2023-05-15T17:33:40.499Z,33.67
2023-05-15T17:34:40.506Z,33.70
2023-05-15T17:35:40.502Z,33.67
2023-05-15T17:36:40.511Z,33.61
2023-05-15T17:37:40.481Z,33.56
2023-05-15T17:38:40.481Z,33.65
2023-05-15T17:39:40.472Z,33.66
2023-05-15T17:40:40.467Z,33.74
2023-05-15T17:41:40.444Z,33.74
2023-05-15T17:42:40.443Z,33.76
2023-05-15T17:43:40.436Z,33.75
2023-05-15T17:44:40.441Z,33.77
2023-05-15T17:45:40.482Z,33.80
2023-05-15T17:46:40.413Z,33.81
2023-05-15T17:47:40.442Z,33.83
2023-05-15T17:48:40.412Z,33.79
2023-05-15T17:49:40.412Z,33.86
2023-05-15T17:50:40.410Z,33.86
2023-05-15T17:51:40.394Z,33.87
2023-05-15T17:52:40.370Z,33.91
2023-05-15T17:53:40.368Z,33.86
2023-05-15T17:54:40.351Z,33.91
2023-05-15T17:55:40.370Z,33.89
2023-05-15T17:56:40.384Z,33.91
2023-05-15T17:57:40.429Z,33.88
2023-05-15T17:58:40.437Z,33.88
2023-05-15T17:59:40.462Z,33.88
2023-05-15T18:00:40.466Z,33.89
2023-05-15T18:01:40.510Z,33.87
2023-05-15T18:02:40.507Z,33.88
2023-05-15T18:03:41.896Z,33.91
2023-05-15T18:04:40.548Z,33.94
2023-05-15T18:05:40.557Z,33.94
2023-05-15T18:06:40.586Z,33.90
2023-05-15T18:07:40.599Z,33.93
2023-05-15T18:08:40.631Z,33.95
2023-05-15T18:09:40.703Z,33.93
2023-05-15T18:10:40.662Z,33.94
2023-05-15T18:11:40.708Z,33.93
2023-05-15T18:12:40.716Z,33.98
2023-05-15T18:13:40.752Z,33.99
2023-05-15T18:14:40.794Z,33.95
2023-05-15T18:15:40.875Z,33.99
2023-05-15T18:16:40.864Z,33.99
2023-05-15T18:17:40.938Z,33.95
2023-05-15T18:18:40.976Z,33.96
2023-05-15T18:19:40.935Z,33.96
2023-05-15T18:20:40.981Z,33.94
2023-05-15T18:21:41.009Z,33.93
2023-05-15T18:22:41.050Z,33.92
2023-05-15T18:23:41.065Z,33.94
2023-05-15T18:24:41.124Z,33.94
2023-05-15T18:25:41.178Z,33.98
2023-05-15T18:26:41.188Z,33.98
2023-05-15T18:27:41.218Z,33.93
2023-05-15T18:28:41.251Z,33.97
2023-05-15T18:29:41.494Z,33.92
2023-05-15T18:30:41.344Z,33.95
2023-05-15T18:31:41.448Z,33.95
2023-05-15T18:32:41.471Z,33.92
2023-05-15T18:33:41.460Z,33.91
2023-05-15T18:34:41.517Z,33.96
2023-05-15T18:35:41.569Z,33.95
2023-05-15T18:36:41.599Z,33.92
2023-05-15T18:37:41.641Z,33.95
2023-05-15T18:38:41.668Z,33.93
2023-05-15T18:39:41.716Z,34.01
2023-05-15T18:40:41.784Z,33.94
2023-05-15T18:41:41.916Z,33.97
2023-05-15T18:42:41.853Z,33.93
2023-05-15T18:43:41.904Z,33.92
2023-05-15T18:44:41.960Z,33.99
2023-05-15T18:45:42.006Z,33.94
2023-05-15T18:46:42.110Z,33.97
2023-05-15T18:47:42.110Z,33.93
2023-05-15T18:48:42.155Z,33.93
2023-05-15T18:49:42.192Z,33.97
2023-05-15T18:50:42.265Z,33.99
2023-05-15T18:51:42.281Z,33.95
2023-05-15T18:52:42.353Z,33.95
2023-05-15T18:53:42.427Z,33.94
2023-05-15T18:54:42.487Z,33.98
2023-05-15T18:55:42.549Z,33.99
2023-05-15T18:56:43.348Z,33.96
2023-05-15T18:57:42.611Z,33.95
2023-05-15T18:58:42.659Z,33.98
2023-05-15T18:59:42.776Z,33.98
2023-05-15T19:00:42.783Z,33.89
2023-05-15T19:01:42.898Z,33.92
2023-05-15T19:02:43.001Z,33.94
2023-05-15T19:03:43.000Z,33.92
2023-05-15T19:04:43.017Z,33.92
2023-05-15T19:05:43.095Z,33.94
2023-05-15T19:06:43.101Z,33.91
2023-05-15T19:07:43.202Z,33.93
2023-05-15T19:08:43.264Z,33.92
2023-05-15T19:09:43.294Z,33.89
2023-05-15T19:10:43.372Z,33.92
2023-05-15T19:11:43.453Z,33.89
2023-05-15T19:12:43.510Z,33.92
2023-05-15T19:13:43.521Z,33.89
2023-05-15T19:14:43.583Z,33.91
2023-05-15T19:15:43.652Z,33.92
2023-05-15T19:16:43.774Z,33.90
2023-05-15T19:17:43.820Z,33.90
2023-05-15T19:18:43.910Z,33.89
2023-05-15T19:19:43.942Z,33.91
2023-05-15T19:20:43.972Z,33.84
2023-05-15T19:21:44.045Z,33.89
2023-05-15T19:22:44.096Z,33.91
2023-05-15T19:23:44.111Z,33.94
2023-05-15T19:24:44.166Z,33.86
2023-05-15T19:25:44.245Z,33.83
2023-05-15T19:26:44.281Z,33.83
2023-05-15T19:27:44.321Z,33.87
2023-05-15T19:28:44.413Z,33.86
2023-05-15T19:29:44.432Z,33.87
2023-05-15T19:30:44.484Z,33.88
2023-05-15T19:31:44.528Z,33.88
2023-05-15T19:32:44.640Z,33.84
2023-05-15T19:33:44.603Z,33.86
2023-05-15T19:34:44.642Z,33.90
2023-05-15T19:35:44.718Z,33.86
2023-05-15T19:36:44.728Z,33.86
2023-05-15T19:37:44.769Z,33.86
2023-05-15T19:38:44.801Z,33.87
2023-05-15T19:39:44.821Z,33.87
2023-05-15T19:40:44.848Z,33.84
2023-05-15T19:41:44.918Z,33.83
2023-05-15T19:42:45.009Z,33.83
2023-05-15T19:43:44.995Z,33.88
2023-05-15T19:44:45.074Z,33.83
2023-05-15T19:45:45.143Z,33.77
2023-05-15T19:46:45.258Z,33.83
2023-05-15T19:47:45.228Z,33.80
2023-05-15T19:48:45.203Z,33.80
2023-05-15T19:49:45.191Z,33.87
2023-05-15T19:50:45.234Z,33.83
2023-05-15T19:51:45.239Z,33.78
2023-05-15T19:52:45.625Z,33.83
2023-05-15T19:53:45.282Z,33.80
2023-05-15T19:54:45.291Z,33.81
2023-05-15T19:55:45.329Z,33.84
2023-05-15T19:56:45.331Z,33.83
2023-05-15T19:57:45.380Z,33.83
2023-05-15T19:58:45.391Z,33.80
2023-05-15T19:59:45.424Z,33.78
2023-05-15T20:00:45.436Z,33.82
2023-05-15T20:01:45.514Z,33.83
2023-05-15T20:02:45.621Z,33.81
2023-05-15T20:03:45.602Z,33.77
2023-05-15T20:04:45.471Z,33.81
2023-05-15T20:05:45.460Z,33.73
2023-05-15T20:06:45.465Z,33.78
2023-05-15T20:07:45.451Z,33.78
2023-05-15T20:08:45.451Z,33.78
2023-05-15T20:09:45.495Z,33.76
2023-05-15T20:10:45.455Z,33.75
2023-05-15T20:11:45.460Z,33.78
2023-05-15T20:12:45.476Z,33.77
2023-05-15T20:13:45.472Z,33.74
2023-05-15T20:14:45.500Z,33.76
2023-05-15T20:15:45.514Z,33.73
2023-05-15T20:16:45.486Z,33.72
2023-05-15T20:17:45.481Z,33.82
2023-05-15T20:18:45.458Z,33.73
2023-05-15T20:19:45.503Z,33.79
2023-05-15T20:20:45.478Z,33.70
2023-05-15T20:21:45.470Z,33.71
2023-05-15T20:22:45.486Z,33.76
2023-05-15T20:23:45.445Z,33.72
2023-05-15T20:24:45.472Z,33.76
2023-05-15T20:25:45.499Z,33.77
2023-05-15T20:26:45.491Z,33.77
2023-05-15T20:27:45.511Z,33.77
2023-05-15T20:28:45.572Z,33.73
2023-05-15T20:29:45.497Z,33.72
2023-05-15T20:30:45.509Z,33.77
2023-05-15T20:31:45.507Z,33.70
2023-05-15T20:32:45.564Z,33.72
2023-05-15T20:33:45.498Z,33.66
2023-05-15T20:34:45.598Z,33.67
2023-05-15T20:35:45.558Z,33.77
2023-05-15T20:36:45.552Z,33.73
2023-05-15T20:37:45.550Z,33.71
2023-05-15T20:38:45.544Z,33.73
2023-05-15T20:39:45.594Z,33.69
2023-05-15T20:40:45.549Z,33.72
2023-05-15T20:41:45.577Z,33.72
2023-05-15T20:42:45.587Z,33.74
2023-05-15T20:43:45.599Z,33.70
2023-05-15T20:44:45.579Z,33.70
2023-05-15T20:45:45.629Z,33.66
2023-05-15T20:46:45.600Z,33.67
2023-05-15T20:47:45.648Z,33.70
2023-05-15T20:48:45.648Z,33.66
2023-05-15T20:49:45.650Z,33.68
2023-05-15T20:50:45.652Z,33.64
2023-05-15T20:51:45.633Z,33.67
2023-05-15T20:52:45.685Z,33.62
2023-05-15T20:53:45.651Z,33.69
2023-05-15T20:54:45.657Z,33.61
2023-05-15T20:55:45.714Z,33.66
2023-05-15T20:56:45.689Z,33.63
2023-05-15T20:57:45.681Z,33.60
2023-05-15T20:58:45.674Z,33.71
2023-05-15T20:59:45.713Z,33.62
2023-05-15T21:00:45.766Z,33.65
2023-05-15T21:01:45.835Z,33.71
2023-05-15T21:02:45.808Z,33.64
2023-05-15T21:03:45.841Z,33.60
2023-05-15T21:04:45.758Z,33.62
2023-05-15T21:05:45.761Z,33.65
2023-05-15T21:06:45.750Z,33.62
2023-05-15T21:07:45.751Z,33.61
2023-05-15T21:08:45.767Z,33.54
2023-05-15T21:09:45.789Z,33.62
2023-05-15T21:10:45.801Z,33.57
2023-05-15T21:11:45.796Z,33.62
2023-05-15T21:12:45.777Z,33.55
2023-05-15T21:13:45.810Z,33.60
2023-05-15T21:14:45.791Z,33.58
2023-05-15T21:15:45.825Z,33.56
2023-05-15T21:16:45.872Z,33.55
2023-05-15T21:17:45.860Z,33.60
2023-05-15T21:18:45.849Z,33.59
2023-05-15T21:19:45.861Z,33.59
2023-05-15T21:20:45.858Z,33.59
2023-05-15T21:21:45.894Z,33.61
2023-05-15T21:22:45.861Z,33.64
2023-05-15T21:23:45.906Z,33.56
2023-05-15T21:24:45.892Z,33.62
2023-05-15T21:25:45.917Z,33.61
2023-05-15T21:26:45.935Z,33.61
2023-05-15T21:27:45.917Z,33.55
2023-05-15T21:28:45.936Z,33.56
2023-05-15T21:29:45.897Z,33.56
2023-05-15T21:30:45.944Z,33.61
2023-05-15T21:31:45.929Z,33.56
2023-05-15T21:32:45.977Z,33.56
2023-05-15T21:33:45.932Z,33.59
2023-05-15T21:34:45.940Z,33.56
2023-05-15T21:35:45.936Z,33.58
2023-05-15T21:36:45.934Z,33.59
2023-05-15T21:37:45.937Z,33.55
2023-05-15T21:38:45.964Z,33.56
2023-05-15T21:39:45.954Z,33.52
2023-05-15T21:40:46.008Z,33.58
2023-05-15T21:41:46.011Z,33.56
2023-05-15T21:42:45.997Z,33.52
2023-05-15T21:43:46.077Z,33.50
2023-05-15T21:44:46.042Z,33.50
2023-05-15T21:45:46.050Z,33.58
2023-05-15T21:46:46.213Z,33.57
2023-05-15T21:47:46.153Z,33.59
2023-05-15T21:48:46.104Z,33.53
2023-05-15T21:49:46.096Z,33.52
2023-05-15T21:50:46.104Z,33.56
2023-05-15T21:51:46.160Z,33.50
2023-05-15T21:52:46.156Z,33.53
2023-05-15T21:53:46.172Z,33.50
2023-05-15T21:54:46.195Z,33.51
2023-05-15T21:55:46.219Z,33.50
2023-05-15T21:56:46.209Z,33.45
2023-05-15T21:57:46.264Z,33.51
2023-05-15T21:58:46.256Z,33.50
2023-05-15T21:59:46.244Z,33.53
2023-05-15T22:00:46.285Z,33.53
2023-05-15T22:01:46.433Z,33.49
2023-05-15T22:02:46.360Z,33.51
2023-05-15T22:03:46.481Z,33.50
2023-05-15T22:04:46.334Z,33.49
2023-05-15T22:05:46.368Z,33.51
2023-05-15T22:06:46.403Z,33.49
2023-05-15T22:07:46.398Z,33.49
2023-05-15T22:08:46.457Z,33.49
2023-05-15T22:09:46.451Z,33.49
2023-05-15T22:10:46.483Z,33.53
2023-05-15T22:11:46.501Z,33.49
2023-05-15T22:12:46.496Z,33.50
2023-05-15T22:13:46.516Z,33.50
2023-05-15T22:14:57.661Z,33.47
2023-05-15T22:15:47.524Z,33.49
2023-05-15T22:16:46.574Z,33.47
2023-05-15T22:17:46.587Z,33.51
2023-05-15T22:18:46.549Z,33.49
2023-05-15T22:20:46.490Z,33.47
2023-05-15T22:21:46.561Z,33.47
2023-05-15T22:22:46.489Z,33.49
2023-05-15T22:23:46.486Z,33.44
2023-05-15T22:24:46.484Z,33.43
2023-05-15T22:25:46.479Z,33.43
2023-05-15T22:26:46.455Z,33.44
2023-05-15T22:27:46.460Z,33.45
2023-05-15T22:28:46.469Z,33.47
2023-05-15T22:29:46.449Z,33.41
2023-05-15T22:30:46.430Z,33.47
2023-05-15T22:31:46.513Z,33.38
2023-05-15T22:32:46.429Z,33.47
2023-05-15T22:33:46.406Z,33.44
2023-05-15T22:34:46.429Z,33.48
2023-05-15T22:35:46.418Z,33.41
2023-05-15T22:36:46.418Z,33.41
2023-05-15T22:37:46.430Z,33.44
2023-05-15T22:38:46.446Z,33.41
2023-05-15T22:39:46.484Z,33.42
2023-05-15T22:40:46.515Z,33.38
2023-05-15T22:41:46.502Z,33.44
2023-05-15T22:42:46.547Z,33.40
2023-05-15T22:43:46.583Z,33.43
2023-05-15T22:44:46.582Z,33.41
2023-05-15T22:45:46.673Z,33.41
2023-05-15T22:46:46.626Z,33.42
2023-05-15T22:47:46.674Z,33.40
2023-05-15T22:48:46.691Z,33.41
2023-05-15T22:49:46.713Z,33.39
2023-05-15T22:50:46.740Z,33.40
2023-05-15T22:51:46.766Z,33.38
2023-05-15T22:52:46.779Z,33.35
2023-05-15T22:53:46.797Z,33.37
2023-05-15T22:54:46.901Z,33.40
2023-05-15T22:55:46.881Z,33.44
2023-05-15T22:56:46.890Z,33.39
2023-05-15T22:57:46.932Z,33.42
2023-05-15T22:58:46.962Z,33.41
2023-05-15T22:59:47.005Z,33.38
2023-05-15T23:00:47.036Z,33.34
2023-05-15T23:01:47.206Z,33.31
2023-05-15T23:02:47.082Z,33.39
2023-05-15T23:03:47.102Z,33.36
2023-05-15T23:04:47.106Z,33.38
2023-05-15T23:05:47.158Z,33.39
2023-05-15T23:06:47.179Z,33.39
2023-05-15T23:07:47.232Z,33.38
2023-05-15T23:08:47.228Z,33.38
2023-05-15T23:09:47.272Z,33.35
2023-05-15T23:10:47.295Z,33.38
2023-05-15T23:11:47.331Z,33.39
2023-05-15T23:12:47.338Z,33.35
2023-05-15T23:13:47.357Z,33.34
2023-05-15T23:14:47.390Z,33.33
2023-05-15T23:15:47.494Z,33.35
2023-05-15T23:16:47.461Z,33.36
2023-05-15T23:17:47.651Z,33.35
2023-05-15T23:18:47.574Z,33.35
2023-05-15T23:19:47.610Z,33.31
2023-05-15T23:20:47.606Z,33.29
2023-05-15T23:21:47.658Z,33.29
2023-05-15T23:22:47.639Z,33.31
2023-05-15T23:23:47.668Z,33.31
2023-05-15T23:24:47.693Z,33.32
2023-05-15T23:25:47.762Z,33.29
2023-05-15T23:26:47.793Z,33.24
2023-05-15T23:27:47.818Z,33.29
2023-05-15T23:28:47.854Z,33.33
2023-05-15T23:29:47.874Z,33.33
2023-05-15T23:30:47.953Z,33.33
2023-05-15T23:31:47.995Z,33.35
2023-05-15T23:32:48.056Z,33.31
2023-05-15T23:33:48.031Z,33.35
2023-05-15T23:34:48.073Z,33.33
2023-05-15T23:35:48.116Z,33.32
2023-05-15T23:36:48.160Z,33.30
2023-05-15T23:37:48.149Z,33.33
2023-05-15T23:38:48.197Z,33.29
2023-05-15T23:39:48.235Z,33.30
2023-05-15T23:40:48.296Z,33.29
2023-05-15T23:41:48.882Z,33.28
2023-05-15T23:42:48.363Z,33.27
2023-05-15T23:43:48.394Z,33.24
2023-05-15T23:44:48.437Z,33.29
2023-05-15T23:45:48.446Z,33.29
2023-05-15T23:46:48.552Z,33.26
2023-05-15T23:47:48.639Z,33.32
2023-05-15T23:48:48.620Z,33.26
2023-05-15T23:49:48.638Z,33.24
2023-05-15T23:50:48.657Z,33.27
2023-05-15T23:51:48.678Z,33.22
2023-05-15T23:52:48.739Z,33.29
2023-05-15T23:53:48.786Z,33.24
2023-05-15T23:54:48.800Z,33.24
2023-05-15T23:55:48.863Z,33.27
2023-05-15T23:56:48.915Z,33.26
2023-05-15T23:57:48.934Z,33.23
2023-05-15T23:58:49.038Z,33.24
2023-05-15T23:59:48.986Z,33.26
